sensor_id;sensor_type;location;lat;lon;timestamp;P1;durP1;ratioP1;P2;durP2;ratioP2
8397;SDS011;4236;54.504;9.588;2023-04-01T00:02:02;45.93;;;42.73;;
8397;SDS011;4236;54.504;9.588;2023-04-01T00:04:30;45.70;;;42.53;;
8397;SDS011;4236;54.504;9.588;2023-04-01T00:06:58;44.33;;;41.33;;
8397;SDS011;4236;54.504;9.588;2023-04-01T00:09:27;42.67;;;39.40;;
8397;SDS011;4236;54.504;9.588;2023-04-01T00:11:56;43.50;;;40.17;;
8397;SDS011;4236;54.504;9.588;2023-04-01T00:14:23;42.23;;;38.53;;
8397;SDS011;4236;54.504;9.588;2023-04-01T00:16:53;40.83;;;38.23;;
8397;SDS011;4236;54.504;9.588;2023-04-01T00:19:20;38.00;;;35.60;;
8397;SDS011;4236;54.504;9.588;2023-04-01T00:21:48;39.00;;;36.70;;
8397;SDS011;4236;54.504;9.588;2023-04-01T00:24:16;38.60;;;36.30;;
8397;SDS011;4236;54.504;9.588;2023-04-01T00:26:43;38.03;;;35.67;;
8397;SDS011;4236;54.504;9.588;2023-04-01T00:29:11;40.70;;;37.97;;
8397;SDS011;4236;54.504;9.588;2023-04-01T00:31:39;40.03;;;37.60;;
8397;SDS011;4236;54.504;9.588;2023-04-01T00:34:08;42.60;;;39.57;;
8397;SDS011;4236;54.504;9.588;2023-04-01T00:36:36;42.47;;;39.87;;
8397;SDS011;4236;54.504;9.588;2023-04-01T00:39:04;44.47;;;41.13;;
8397;SDS011;4236;54.504;9.588;2023-04-01T00:41:32;48.13;;;45.07;;
8397;SDS011;4236;54.504;9.588;2023-04-01T00:44:14;53.67;;;49.90;;
8397;SDS011;4236;54.504;9.588;2023-04-01T00:46:44;50.93;;;47.73;;
8397;SDS011;4236;54.504;9.588;2023-04-01T00:49:14;50.03;;;46.53;;
8397;SDS011;4236;54.504;9.588;2023-04-01T00:51:44;48.53;;;45.43;;
8397;SDS011;4236;54.504;9.588;2023-04-01T00:54:14;45.23;;;42.30;;
8397;SDS011;4236;54.504;9.588;2023-04-01T00:56:45;46.50;;;43.50;;
8397;SDS011;4236;54.504;9.588;2023-04-01T00:59:18;46.60;;;43.33;;
8397;SDS011;4236;54.504;9.588;2023-04-01T01:01:49;45.97;;;42.80;;
8397;SDS011;4236;54.504;9.588;2023-04-01T01:04:22;46.87;;;43.87;;
8397;SDS011;4236;54.504;9.588;2023-04-01T01:06:54;49.87;;;46.20;;
8397;SDS011;4236;54.504;9.588;2023-04-01T01:09:30;47.43;;;43.63;;
8397;SDS011;4236;54.504;9.588;2023-04-01T01:12:07;47.77;;;44.60;;
8397;SDS011;4236;54.504;9.588;2023-04-01T01:14:45;48.90;;;45.50;;
8397;SDS011;4236;54.504;9.588;2023-04-01T01:17:22;44.73;;;42.13;;
8397;SDS011;4236;54.504;9.588;2023-04-01T01:20:07;46.60;;;43.47;;
8397;SDS011;4236;54.504;9.588;2023-04-01T01:23:00;43.30;;;40.90;;
8397;SDS011;4236;54.504;9.588;2023-04-01T01:25:54;43.30;;;40.80;;
8397;SDS011;4236;54.504;9.588;2023-04-01T01:28:38;41.87;;;39.37;;
8397;SDS011;4236;54.504;9.588;2023-04-01T01:31:17;41.13;;;38.60;;
8397;SDS011;4236;54.504;9.588;2023-04-01T01:33:51;40.40;;;38.40;;
8397;SDS011;4236;54.504;9.588;2023-04-01T01:36:32;41.37;;;38.67;;
8397;SDS011;4236;54.504;9.588;2023-04-01T01:39:01;46.80;;;44.40;;
8397;SDS011;4236;54.504;9.588;2023-04-01T01:41:32;48.97;;;46.17;;
8397;SDS011;4236;54.504;9.588;2023-04-01T01:44:02;47.80;;;45.30;;
8397;SDS011;4236;54.504;9.588;2023-04-01T01:46:32;52.10;;;49.30;;
8397;SDS011;4236;54.504;9.588;2023-04-01T01:49:00;54.77;;;51.70;;
8397;SDS011;4236;54.504;9.588;2023-04-01T01:51:31;53.27;;;50.50;;
8397;SDS011;4236;54.504;9.588;2023-04-01T01:53:59;51.40;;;48.70;;
8397;SDS011;4236;54.504;9.588;2023-04-01T01:56:27;49.30;;;46.73;;
8397;SDS011;4236;54.504;9.588;2023-04-01T01:58:58;47.07;;;44.20;;
8397;SDS011;4236;54.504;9.588;2023-04-01T02:01:28;44.50;;;42.03;;
8397;SDS011;4236;54.504;9.588;2023-04-01T02:03:58;42.63;;;40.47;;
8397;SDS011;4236;54.504;9.588;2023-04-01T02:06:27;41.83;;;39.43;;
8397;SDS011;4236;54.504;9.588;2023-04-01T02:09:01;41.47;;;38.93;;
8397;SDS011;4236;54.504;9.588;2023-04-01T02:11:32;43.23;;;41.00;;
8397;SDS011;4236;54.504;9.588;2023-04-01T02:14:06;42.70;;;40.40;;
8397;SDS011;4236;54.504;9.588;2023-04-01T02:16:38;41.83;;;39.83;;
8397;SDS011;4236;54.504;9.588;2023-04-01T02:19:12;40.67;;;38.50;;
8397;SDS011;4236;54.504;9.588;2023-04-01T02:21:41;40.63;;;38.53;;
8397;SDS011;4236;54.504;9.588;2023-04-01T02:24:12;41.63;;;39.37;;
8397;SDS011;4236;54.504;9.588;2023-04-01T02:26:41;43.90;;;41.70;;
8397;SDS011;4236;54.504;9.588;2023-04-01T02:29:12;45.40;;;42.60;;
8397;SDS011;4236;54.504;9.588;2023-04-01T02:31:40;44.50;;;42.40;;
8397;SDS011;4236;54.504;9.588;2023-04-01T02:34:09;45.63;;;43.13;;
8397;SDS011;4236;54.504;9.588;2023-04-01T02:36:37;47.27;;;44.93;;
8397;SDS011;4236;54.504;9.588;2023-04-01T02:39:05;97.43;;;92.77;;
8397;SDS011;4236;54.504;9.588;2023-04-01T02:41:39;119.90;;;114.80;;
8397;SDS011;4236;54.504;9.588;2023-04-01T02:44:07;132.97;;;127.70;;
8397;SDS011;4236;54.504;9.588;2023-04-01T02:46:35;138.60;;;132.97;;
8397;SDS011;4236;54.504;9.588;2023-04-01T02:49:03;184.90;;;177.70;;
8397;SDS011;4236;54.504;9.588;2023-04-01T02:51:32;226.97;;;218.13;;
8397;SDS011;4236;54.504;9.588;2023-04-01T02:53:59;240.43;;;231.23;;
8397;SDS011;4236;54.504;9.588;2023-04-01T02:56:27;264.03;;;253.70;;
8397;SDS011;4236;54.504;9.588;2023-04-01T02:58:56;299.23;;;287.23;;
8397;SDS011;4236;54.504;9.588;2023-04-01T03:01:24;320.87;;;307.77;;
8397;SDS011;4236;54.504;9.588;2023-04-01T03:03:52;337.07;;;323.30;;
8397;SDS011;4236;54.504;9.588;2023-04-01T03:06:19;428.80;;;408.60;;
8397;SDS011;4236;54.504;9.588;2023-04-01T03:08:47;441.63;;;419.90;;
8397;SDS011;4236;54.504;9.588;2023-04-01T03:11:15;448.40;;;424.30;;
8397;SDS011;4236;54.504;9.588;2023-04-01T03:13:42;442.87;;;419.13;;
8397;SDS011;4236;54.504;9.588;2023-04-01T03:16:11;441.63;;;417.70;;
8397;SDS011;4236;54.504;9.588;2023-04-01T03:18:39;435.43;;;412.73;;
8397;SDS011;4236;54.504;9.588;2023-04-01T03:21:13;428.93;;;407.07;;
8397;SDS011;4236;54.504;9.588;2023-04-01T03:23:42;440.93;;;418.07;;
8397;SDS011;4236;54.504;9.588;2023-04-01T03:26:10;449.97;;;422.33;;
8397;SDS011;4236;54.504;9.588;2023-04-01T03:28:38;457.83;;;430.90;;
8397;SDS011;4236;54.504;9.588;2023-04-01T03:31:06;462.07;;;435.23;;
8397;SDS011;4236;54.504;9.588;2023-04-01T03:33:36;456.73;;;430.90;;
8397;SDS011;4236;54.504;9.588;2023-04-01T03:36:04;450.30;;;424.80;;
8397;SDS011;4236;54.504;9.588;2023-04-01T03:38:32;449.80;;;425.80;;
8397;SDS011;4236;54.504;9.588;2023-04-01T03:41:00;457.90;;;434.00;;
8397;SDS011;4236;54.504;9.588;2023-04-01T03:43:28;433.73;;;411.80;;
8397;SDS011;4236;54.504;9.588;2023-04-01T03:45:56;431.63;;;409.87;;
8397;SDS011;4236;54.504;9.588;2023-04-01T03:48:24;424.07;;;403.07;;
8397;SDS011;4236;54.504;9.588;2023-04-01T03:50:54;425.30;;;405.47;;
8397;SDS011;4236;54.504;9.588;2023-04-01T03:53:21;418.23;;;398.23;;
8397;SDS011;4236;54.504;9.588;2023-04-01T03:55:49;421.70;;;401.70;;
8397;SDS011;4236;54.504;9.588;2023-04-01T03:58:18;424.83;;;404.60;;
8397;SDS011;4236;54.504;9.588;2023-04-01T04:00:46;421.80;;;402.40;;
8397;SDS011;4236;54.504;9.588;2023-04-01T04:03:13;410.57;;;391.60;;
8397;SDS011;4236;54.504;9.588;2023-04-01T04:05:45;412.00;;;392.13;;
8397;SDS011;4236;54.504;9.588;2023-04-01T04:08:15;416.30;;;396.30;;
8397;SDS011;4236;54.504;9.588;2023-04-01T04:10:43;422.90;;;403.13;;
8397;SDS011;4236;54.504;9.588;2023-04-01T04:13:12;425.63;;;405.63;;
8397;SDS011;4236;54.504;9.588;2023-04-01T04:15:40;426.80;;;406.53;;
8397;SDS011;4236;54.504;9.588;2023-04-01T04:18:08;408.00;;;388.00;;
8397;SDS011;4236;54.504;9.588;2023-04-01T04:20:35;398.87;;;380.30;;
8397;SDS011;4236;54.504;9.588;2023-04-01T04:23:03;405.97;;;387.17;;
8397;SDS011;4236;54.504;9.588;2023-04-01T04:25:32;398.80;;;380.20;;
8397;SDS011;4236;54.504;9.588;2023-04-01T04:28:00;385.70;;;367.80;;
8397;SDS011;4236;54.504;9.588;2023-04-01T04:30:27;375.83;;;358.23;;
8397;SDS011;4236;54.504;9.588;2023-04-01T04:32:55;356.87;;;340.60;;
8397;SDS011;4236;54.504;9.588;2023-04-01T04:35:23;337.50;;;322.93;;
8397;SDS011;4236;54.504;9.588;2023-04-01T04:37:51;313.27;;;300.47;;
8397;SDS011;4236;54.504;9.588;2023-04-01T04:40:18;257.13;;;247.20;;
8397;SDS011;4236;54.504;9.588;2023-04-01T04:42:47;223.00;;;214.50;;
8397;SDS011;4236;54.504;9.588;2023-04-01T04:45:15;209.67;;;202.17;;
8397;SDS011;4236;54.504;9.588;2023-04-01T04:47:43;188.67;;;182.03;;
8397;SDS011;4236;54.504;9.588;2023-04-01T04:50:10;172.53;;;166.40;;
8397;SDS011;4236;54.504;9.588;2023-04-01T04:52:39;183.10;;;176.20;;
8397;SDS011;4236;54.504;9.588;2023-04-01T04:55:07;183.07;;;176.37;;
8397;SDS011;4236;54.504;9.588;2023-04-01T04:57:34;176.73;;;169.90;;
8397;SDS011;4236;54.504;9.588;2023-04-01T05:00:04;263.03;;;253.20;;
8397;SDS011;4236;54.504;9.588;2023-04-01T05:02:33;270.37;;;260.53;;
8397;SDS011;4236;54.504;9.588;2023-04-01T05:05:01;267.80;;;257.23;;
8397;SDS011;4236;54.504;9.588;2023-04-01T05:07:30;282.90;;;272.10;;
8397;SDS011;4236;54.504;9.588;2023-04-01T05:09:57;295.83;;;284.03;;
8397;SDS011;4236;54.504;9.588;2023-04-01T05:12:25;292.43;;;281.03;;
8397;SDS011;4236;54.504;9.588;2023-04-01T05:14:53;269.57;;;259.47;;
8397;SDS011;4236;54.504;9.588;2023-04-01T05:17:22;275.10;;;264.90;;
8397;SDS011;4236;54.504;9.588;2023-04-01T05:19:49;260.43;;;250.33;;
8397;SDS011;4236;54.504;9.588;2023-04-01T05:22:17;270.10;;;260.03;;
8397;SDS011;4236;54.504;9.588;2023-04-01T05:24:45;281.03;;;270.40;;
8397;SDS011;4236;54.504;9.588;2023-04-01T05:27:13;230.27;;;222.13;;
8397;SDS011;4236;54.504;9.588;2023-04-01T05:29:40;272.47;;;261.73;;
8397;SDS011;4236;54.504;9.588;2023-04-01T05:32:08;298.53;;;286.43;;
8397;SDS011;4236;54.504;9.588;2023-04-01T05:34:37;291.57;;;280.10;;
8397;SDS011;4236;54.504;9.588;2023-04-01T05:37:04;297.77;;;285.87;;
8397;SDS011;4236;54.504;9.588;2023-04-01T05:39:35;307.40;;;294.70;;
8397;SDS011;4236;54.504;9.588;2023-04-01T05:42:05;309.27;;;296.57;;
8397;SDS011;4236;54.504;9.588;2023-04-01T05:44:33;318.90;;;305.80;;
8397;SDS011;4236;54.504;9.588;2023-04-01T05:47:01;320.53;;;307.40;;
8397;SDS011;4236;54.504;9.588;2023-04-01T05:49:29;344.67;;;329.93;;
8397;SDS011;4236;54.504;9.588;2023-04-01T05:51:59;374.33;;;356.90;;
8397;SDS011;4236;54.504;9.588;2023-04-01T05:54:27;390.60;;;372.10;;
8397;SDS011;4236;54.504;9.588;2023-04-01T05:56:55;387.17;;;368.40;;
8397;SDS011;4236;54.504;9.588;2023-04-01T05:59:22;397.33;;;377.73;;
8397;SDS011;4236;54.504;9.588;2023-04-01T06:01:50;406.50;;;385.67;;
8397;SDS011;4236;54.504;9.588;2023-04-01T06:04:18;413.70;;;391.40;;
8397;SDS011;4236;54.504;9.588;2023-04-01T06:06:45;394.50;;;372.60;;
8397;SDS011;4236;54.504;9.588;2023-04-01T06:09:15;400.97;;;379.57;;
8397;SDS011;4236;54.504;9.588;2023-04-01T06:11:54;404.60;;;384.13;;
8397;SDS011;4236;54.504;9.588;2023-04-01T06:14:35;387.33;;;367.40;;
8397;SDS011;4236;54.504;9.588;2023-04-01T06:17:17;412.47;;;389.93;;
8397;SDS011;4236;54.504;9.588;2023-04-01T06:19:55;414.30;;;391.57;;
8397;SDS011;4236;54.504;9.588;2023-04-01T06:22:39;422.77;;;398.27;;
8397;SDS011;4236;54.504;9.588;2023-04-01T06:25:23;437.73;;;411.93;;
8397;SDS011;4236;54.504;9.588;2023-04-01T06:30:58;440.67;;;412.97;;
8397;SDS011;4236;54.504;9.588;2023-04-01T06:33:35;451.57;;;422.57;;
8397;SDS011;4236;54.504;9.588;2023-04-01T06:36:34;448.80;;;420.10;;
8397;SDS011;4236;54.504;9.588;2023-04-01T06:39:22;431.30;;;404.10;;
8397;SDS011;4236;54.504;9.588;2023-04-01T06:44:53;438.40;;;411.10;;
8397;SDS011;4236;54.504;9.588;2023-04-01T06:47:35;439.23;;;410.53;;
8397;SDS011;4236;54.504;9.588;2023-04-01T06:50:11;432.20;;;403.00;;
8397;SDS011;4236;54.504;9.588;2023-04-01T06:52:49;428.00;;;400.57;;
8397;SDS011;4236;54.504;9.588;2023-04-01T06:55:26;406.30;;;378.93;;
8397;SDS011;4236;54.504;9.588;2023-04-01T06:58:01;414.23;;;386.33;;
8397;SDS011;4236;54.504;9.588;2023-04-01T07:00:33;421.03;;;392.53;;
8397;SDS011;4236;54.504;9.588;2023-04-01T07:03:05;415.80;;;387.60;;
8397;SDS011;4236;54.504;9.588;2023-04-01T07:05:43;401.43;;;374.33;;
8397;SDS011;4236;54.504;9.588;2023-04-01T07:08:11;405.23;;;377.80;;
8397;SDS011;4236;54.504;9.588;2023-04-01T07:10:43;416.37;;;390.27;;
8397;SDS011;4236;54.504;9.588;2023-04-01T07:13:20;429.37;;;402.10;;
8397;SDS011;4236;54.504;9.588;2023-04-01T07:15:54;438.60;;;412.57;;
8397;SDS011;4236;54.504;9.588;2023-04-01T07:18:29;432.10;;;407.10;;
8397;SDS011;4236;54.504;9.588;2023-04-01T07:21:03;445.10;;;419.40;;
8397;SDS011;4236;54.504;9.588;2023-04-01T07:23:38;437.70;;;411.80;;
8397;SDS011;4236;54.504;9.588;2023-04-01T07:26:11;444.10;;;417.10;;
8397;SDS011;4236;54.504;9.588;2023-04-01T07:28:45;440.37;;;413.63;;
8397;SDS011;4236;54.504;9.588;2023-04-01T07:31:15;442.17;;;416.17;;
8397;SDS011;4236;54.504;9.588;2023-04-01T07:33:52;446.00;;;420.27;;
8397;SDS011;4236;54.504;9.588;2023-04-01T07:36:31;440.63;;;415.10;;
8397;SDS011;4236;54.504;9.588;2023-04-01T07:39:06;447.10;;;421.90;;
8397;SDS011;4236;54.504;9.588;2023-04-01T07:41:45;438.00;;;412.50;;
8397;SDS011;4236;54.504;9.588;2023-04-01T07:44:23;433.23;;;408.27;;
8397;SDS011;4236;54.504;9.588;2023-04-01T07:47:00;440.40;;;415.77;;
8397;SDS011;4236;54.504;9.588;2023-04-01T07:49:40;422.23;;;397.77;;
8397;SDS011;4236;54.504;9.588;2023-04-01T07:52:20;419.43;;;394.93;;
8397;SDS011;4236;54.504;9.588;2023-04-01T07:54:56;431.60;;;407.00;;
8397;SDS011;4236;54.504;9.588;2023-04-01T07:57:30;415.87;;;392.67;;
8397;SDS011;4236;54.504;9.588;2023-04-01T08:00:08;407.63;;;385.13;;
8397;SDS011;4236;54.504;9.588;2023-04-01T08:02:47;397.50;;;376.50;;
8397;SDS011;4236;54.504;9.588;2023-04-01T08:05:25;406.77;;;384.97;;
8397;SDS011;4236;54.504;9.588;2023-04-01T08:07:57;402.13;;;380.73;;
8397;SDS011;4236;54.504;9.588;2023-04-01T08:10:34;410.23;;;388.10;;
8397;SDS011;4236;54.504;9.588;2023-04-01T08:13:09;413.13;;;391.40;;
8397;SDS011;4236;54.504;9.588;2023-04-01T08:15:48;412.50;;;390.70;;
8397;SDS011;4236;54.504;9.588;2023-04-01T08:18:26;409.90;;;388.80;;
8397;SDS011;4236;54.504;9.588;2023-04-01T08:21:05;406.93;;;385.67;;
8397;SDS011;4236;54.504;9.588;2023-04-01T08:23:40;394.87;;;373.73;;
8397;SDS011;4236;54.504;9.588;2023-04-01T08:26:12;397.17;;;376.57;;
8397;SDS011;4236;54.504;9.588;2023-04-01T08:28:46;380.27;;;361.37;;
8397;SDS011;4236;54.504;9.588;2023-04-01T08:31:24;349.37;;;333.67;;
8397;SDS011;4236;54.504;9.588;2023-04-01T08:33:58;332.07;;;316.87;;
8397;SDS011;4236;54.504;9.588;2023-04-01T08:36:29;292.97;;;279.50;;
8397;SDS011;4236;54.504;9.588;2023-04-01T08:39:02;285.07;;;272.47;;
8397;SDS011;4236;54.504;9.588;2023-04-01T08:41:40;235.53;;;225.83;;
8397;SDS011;4236;54.504;9.588;2023-04-01T08:44:32;153.03;;;146.83;;
8397;SDS011;4236;54.504;9.588;2023-04-01T08:47:18;77.50;;;74.20;;
8397;SDS011;4236;54.504;9.588;2023-04-01T08:50:04;95.77;;;91.73;;
8397;SDS011;4236;54.504;9.588;2023-04-01T08:52:52;82.20;;;78.43;;
8397;SDS011;4236;54.504;9.588;2023-04-01T08:55:31;95.53;;;91.43;;
8397;SDS011;4236;54.504;9.588;2023-04-01T08:58:11;114.03;;;109.50;;
8397;SDS011;4236;54.504;9.588;2023-04-01T09:01:02;126.50;;;121.83;;
8397;SDS011;4236;54.504;9.588;2023-04-01T09:03:52;130.73;;;125.60;;
8397;SDS011;4236;54.504;9.588;2023-04-01T09:06:47;118.00;;;113.50;;
8397;SDS011;4236;54.504;9.588;2023-04-01T09:09:24;106.07;;;101.50;;
8397;SDS011;4236;54.504;9.588;2023-04-01T09:12:26;94.30;;;90.50;;
8397;SDS011;4236;54.504;9.588;2023-04-01T09:15:16;87.53;;;83.60;;
8397;SDS011;4236;54.504;9.588;2023-04-01T09:18:15;76.60;;;73.27;;
8397;SDS011;4236;54.504;9.588;2023-04-01T09:21:01;68.87;;;65.17;;
8397;SDS011;4236;54.504;9.588;2023-04-01T09:23:45;61.37;;;58.27;;
8397;SDS011;4236;54.504;9.588;2023-04-01T09:26:29;57.77;;;54.70;;
8397;SDS011;4236;54.504;9.588;2023-04-01T09:29:13;44.70;;;41.90;;
8397;SDS011;4236;54.504;9.588;2023-04-01T09:32:02;41.03;;;38.67;;
8397;SDS011;4236;54.504;9.588;2023-04-01T09:34:51;37.63;;;35.30;;
8397;SDS011;4236;54.504;9.588;2023-04-01T09:37:25;35.03;;;32.93;;
8397;SDS011;4236;54.504;9.588;2023-04-01T09:43:00;31.57;;;29.30;;
8397;SDS011;4236;54.504;9.588;2023-04-01T09:45:37;31.53;;;29.23;;
8397;SDS011;4236;54.504;9.588;2023-04-01T09:48:14;31.40;;;28.47;;
8397;SDS011;4236;54.504;9.588;2023-04-01T09:50:51;30.30;;;28.10;;
8397;SDS011;4236;54.504;9.588;2023-04-01T09:53:35;30.50;;;28.00;;
8397;SDS011;4236;54.504;9.588;2023-04-01T09:56:23;29.90;;;27.40;;
8397;SDS011;4236;54.504;9.588;2023-04-01T10:11:22;30.87;;;28.20;;
8397;SDS011;4236;54.504;9.588;2023-04-01T10:14:18;31.10;;;28.90;;
8397;SDS011;4236;54.504;9.588;2023-04-01T10:17:25;31.47;;;29.07;;
8397;SDS011;4236;54.504;9.588;2023-04-01T10:20:22;31.47;;;28.60;;
8397;SDS011;4236;54.504;9.588;2023-04-01T10:23:09;32.80;;;29.90;;
8397;SDS011;4236;54.504;9.588;2023-04-01T10:25:55;30.03;;;27.70;;
8397;SDS011;4236;54.504;9.588;2023-04-01T10:28:45;30.30;;;27.63;;
8397;SDS011;4236;54.504;9.588;2023-04-01T10:31:37;29.33;;;26.80;;
8397;SDS011;4236;54.504;9.588;2023-04-01T10:34:29;30.30;;;27.67;;
8397;SDS011;4236;54.504;9.588;2023-04-01T10:37:34;30.37;;;28.07;;
8397;SDS011;4236;54.504;9.588;2023-04-01T10:40:28;30.10;;;27.60;;
8397;SDS011;4236;54.504;9.588;2023-04-01T10:49:30;31.27;;;28.97;;
8397;SDS011;4236;54.504;9.588;2023-04-01T10:52:38;30.37;;;28.23;;
8397;SDS011;4236;54.504;9.588;2023-04-01T10:55:35;30.67;;;28.67;;
8397;SDS011;4236;54.504;9.588;2023-04-01T11:01:28;29.20;;;27.07;;
8397;SDS011;4236;54.504;9.588;2023-04-01T11:07:55;28.87;;;26.83;;
8397;SDS011;4236;54.504;9.588;2023-04-01T11:10:51;30.27;;;28.27;;
8397;SDS011;4236;54.504;9.588;2023-04-01T11:13:38;31.33;;;29.00;;
8397;SDS011;4236;54.504;9.588;2023-04-01T11:16:35;28.87;;;26.97;;
8397;SDS011;4236;54.504;9.588;2023-04-01T11:19:33;30.40;;;28.30;;
8397;SDS011;4236;54.504;9.588;2023-04-01T11:22:27;29.03;;;27.10;;
8397;SDS011;4236;54.504;9.588;2023-04-01T11:25:06;29.50;;;26.80;;
8397;SDS011;4236;54.504;9.588;2023-04-01T11:27:59;28.70;;;26.70;;
8397;SDS011;4236;54.504;9.588;2023-04-01T11:30:56;27.40;;;25.60;;
8397;SDS011;4236;54.504;9.588;2023-04-01T11:33:42;28.30;;;26.27;;
8397;SDS011;4236;54.504;9.588;2023-04-01T11:36:20;28.23;;;26.13;;
8397;SDS011;4236;54.504;9.588;2023-04-01T11:38:58;30.03;;;27.73;;
8397;SDS011;4236;54.504;9.588;2023-04-01T11:41:38;28.17;;;26.17;;
8397;SDS011;4236;54.504;9.588;2023-04-01T11:44:13;30.27;;;27.97;;
8397;SDS011;4236;54.504;9.588;2023-04-01T11:46:48;28.93;;;26.73;;
8397;SDS011;4236;54.504;9.588;2023-04-01T11:49:35;29.97;;;27.77;;
8397;SDS011;4236;54.504;9.588;2023-04-01T11:52:15;29.23;;;26.70;;
8397;SDS011;4236;54.504;9.588;2023-04-01T11:55:02;29.07;;;26.97;;
8397;SDS011;4236;54.504;9.588;2023-04-01T11:57:43;27.73;;;26.00;;
8397;SDS011;4236;54.504;9.588;2023-04-01T12:00:38;27.47;;;25.47;;
8397;SDS011;4236;54.504;9.588;2023-04-01T12:06:13;28.67;;;26.87;;
8397;SDS011;4236;54.504;9.588;2023-04-01T12:08:48;28.10;;;26.07;;
8397;SDS011;4236;54.504;9.588;2023-04-01T12:11:24;29.60;;;27.23;;
8397;SDS011;4236;54.504;9.588;2023-04-01T12:13:59;28.43;;;26.63;;
8397;SDS011;4236;54.504;9.588;2023-04-01T12:16:39;29.80;;;27.40;;
8397;SDS011;4236;54.504;9.588;2023-04-01T12:19:18;29.30;;;27.30;;
8397;SDS011;4236;54.504;9.588;2023-04-01T12:21:59;28.77;;;27.10;;
8397;SDS011;4236;54.504;9.588;2023-04-01T12:24:45;28.60;;;26.47;;
8397;SDS011;4236;54.504;9.588;2023-04-01T12:27:20;28.60;;;26.53;;
8397;SDS011;4236;54.504;9.588;2023-04-01T12:30:06;29.47;;;26.70;;
8397;SDS011;4236;54.504;9.588;2023-04-01T12:33:18;28.30;;;26.40;;
8397;SDS011;4236;54.504;9.588;2023-04-01T12:36:00;28.77;;;26.73;;
8397;SDS011;4236;54.504;9.588;2023-04-01T12:38:42;28.50;;;26.90;;
8397;SDS011;4236;54.504;9.588;2023-04-01T12:41:22;28.43;;;26.20;;
8397;SDS011;4236;54.504;9.588;2023-04-01T12:44:13;28.40;;;26.43;;
8397;SDS011;4236;54.504;9.588;2023-04-01T12:47:00;28.97;;;26.90;;
8397;SDS011;4236;54.504;9.588;2023-04-01T12:49:52;29.33;;;27.00;;
8397;SDS011;4236;54.504;9.588;2023-04-01T12:52:31;28.73;;;26.60;;
8397;SDS011;4236;54.504;9.588;2023-04-01T12:55:32;28.93;;;26.70;;
8397;SDS011;4236;54.504;9.588;2023-04-01T12:58:15;27.70;;;25.80;;
8397;SDS011;4236;54.504;9.588;2023-04-01T13:01:08;27.83;;;25.87;;
8397;SDS011;4236;54.504;9.588;2023-04-01T13:03:51;28.17;;;26.27;;
8397;SDS011;4236;54.504;9.588;2023-04-01T13:06:32;29.83;;;27.57;;
8397;SDS011;4236;54.504;9.588;2023-04-01T13:09:11;28.10;;;26.37;;
8397;SDS011;4236;54.504;9.588;2023-04-01T13:11:57;29.13;;;27.17;;
8397;SDS011;4236;54.504;9.588;2023-04-01T13:14:52;27.67;;;25.97;;
8397;SDS011;4236;54.504;9.588;2023-04-01T13:17:48;27.67;;;26.20;;
8397;SDS011;4236;54.504;9.588;2023-04-01T13:20:23;28.47;;;26.40;;
8397;SDS011;4236;54.504;9.588;2023-04-01T13:23:05;28.47;;;26.43;;
8397;SDS011;4236;54.504;9.588;2023-04-01T13:25:46;27.43;;;25.60;;
8397;SDS011;4236;54.504;9.588;2023-04-01T13:28:40;27.33;;;25.40;;
8397;SDS011;4236;54.504;9.588;2023-04-01T13:31:20;29.30;;;26.57;;
8397;SDS011;4236;54.504;9.588;2023-04-01T13:34:00;28.37;;;26.33;;
8397;SDS011;4236;54.504;9.588;2023-04-01T13:36:42;27.23;;;25.40;;
8397;SDS011;4236;54.504;9.588;2023-04-01T13:39:25;27.83;;;26.00;;
8397;SDS011;4236;54.504;9.588;2023-04-01T13:42:05;28.07;;;25.80;;
8397;SDS011;4236;54.504;9.588;2023-04-01T13:44:44;29.07;;;26.40;;
8397;SDS011;4236;54.504;9.588;2023-04-01T13:47:20;27.73;;;25.93;;
8397;SDS011;4236;54.504;9.588;2023-04-01T13:56:10;27.90;;;25.90;;
8397;SDS011;4236;54.504;9.588;2023-04-01T13:58:46;28.23;;;26.53;;
8397;SDS011;4236;54.504;9.588;2023-04-01T14:01:28;28.73;;;26.97;;
8397;SDS011;4236;54.504;9.588;2023-04-01T14:04:12;27.97;;;26.17;;
8397;SDS011;4236;54.504;9.588;2023-04-01T14:07:00;27.90;;;25.70;;
8397;SDS011;4236;54.504;9.588;2023-04-01T14:09:45;27.67;;;26.07;;
8397;SDS011;4236;54.504;9.588;2023-04-01T14:12:35;27.97;;;25.97;;
8397;SDS011;4236;54.504;9.588;2023-04-01T14:15:14;26.70;;;25.07;;
8397;SDS011;4236;54.504;9.588;2023-04-01T14:17:58;26.23;;;24.70;;
8397;SDS011;4236;54.504;9.588;2023-04-01T14:20:41;25.63;;;24.13;;
8397;SDS011;4236;54.504;9.588;2023-04-01T14:26:12;26.50;;;25.00;;
8397;SDS011;4236;54.504;9.588;2023-04-01T14:29:01;28.03;;;26.23;;
8397;SDS011;4236;54.504;9.588;2023-04-01T14:31:42;27.80;;;25.93;;
8397;SDS011;4236;54.504;9.588;2023-04-01T14:34:21;27.53;;;25.77;;
8397;SDS011;4236;54.504;9.588;2023-04-01T14:37:01;28.30;;;26.60;;
8397;SDS011;4236;54.504;9.588;2023-04-01T14:39:56;27.83;;;26.23;;
8397;SDS011;4236;54.504;9.588;2023-04-01T14:42:54;27.27;;;25.53;;
8397;SDS011;4236;54.504;9.588;2023-04-01T14:45:39;29.60;;;27.00;;
8397;SDS011;4236;54.504;9.588;2023-04-01T14:48:32;27.23;;;25.33;;
8397;SDS011;4236;54.504;9.588;2023-04-01T14:51:08;28.60;;;26.90;;
8397;SDS011;4236;54.504;9.588;2023-04-01T14:53:43;28.17;;;26.20;;
8397;SDS011;4236;54.504;9.588;2023-04-01T14:56:34;27.43;;;25.80;;
8397;SDS011;4236;54.504;9.588;2023-04-01T14:59:04;27.90;;;26.30;;
8397;SDS011;4236;54.504;9.588;2023-04-01T15:01:37;27.50;;;26.00;;
8397;SDS011;4236;54.504;9.588;2023-04-01T15:07:49;28.10;;;26.30;;
8397;SDS011;4236;54.504;9.588;2023-04-01T15:10:37;28.90;;;27.00;;
8397;SDS011;4236;54.504;9.588;2023-04-01T15:13:34;28.60;;;26.43;;
8397;SDS011;4236;54.504;9.588;2023-04-01T15:16:17;30.40;;;28.43;;
8397;SDS011;4236;54.504;9.588;2023-04-01T15:18:54;32.07;;;29.77;;
8397;SDS011;4236;54.504;9.588;2023-04-01T15:24:23;29.13;;;27.20;;
8397;SDS011;4236;54.504;9.588;2023-04-01T15:26:57;28.93;;;27.07;;
8397;SDS011;4236;54.504;9.588;2023-04-01T15:29:52;29.40;;;27.20;;
8397;SDS011;4236;54.504;9.588;2023-04-01T15:32:32;29.20;;;26.80;;
8397;SDS011;4236;54.504;9.588;2023-04-01T15:35:15;30.47;;;28.40;;
8397;SDS011;4236;54.504;9.588;2023-04-01T15:37:54;30.33;;;28.33;;
8397;SDS011;4236;54.504;9.588;2023-04-01T15:40:28;29.53;;;27.80;;
8397;SDS011;4236;54.504;9.588;2023-04-01T15:43:05;28.23;;;26.10;;
8397;SDS011;4236;54.504;9.588;2023-04-01T15:45:47;29.37;;;27.33;;
8397;SDS011;4236;54.504;9.588;2023-04-01T15:48:27;28.10;;;26.30;;
8397;SDS011;4236;54.504;9.588;2023-04-01T15:51:02;30.33;;;27.43;;
8397;SDS011;4236;54.504;9.588;2023-04-01T15:53:49;29.00;;;27.20;;
8397;SDS011;4236;54.504;9.588;2023-04-01T15:56:39;29.17;;;26.73;;
8397;SDS011;4236;54.504;9.588;2023-04-01T15:59:20;27.43;;;25.83;;
8397;SDS011;4236;54.504;9.588;2023-04-01T16:02:07;26.90;;;25.20;;
8397;SDS011;4236;54.504;9.588;2023-04-01T16:04:45;26.77;;;24.83;;
8397;SDS011;4236;54.504;9.588;2023-04-01T16:07:25;26.20;;;24.80;;
8397;SDS011;4236;54.504;9.588;2023-04-01T16:10:32;27.60;;;25.70;;
8397;SDS011;4236;54.504;9.588;2023-04-01T16:13:17;26.60;;;25.07;;
8397;SDS011;4236;54.504;9.588;2023-04-01T16:15:58;26.73;;;25.07;;
8397;SDS011;4236;54.504;9.588;2023-04-01T16:18:38;26.23;;;24.73;;
8397;SDS011;4236;54.504;9.588;2023-04-01T16:21:36;26.37;;;24.63;;
8397;SDS011;4236;54.504;9.588;2023-04-01T16:24:13;26.77;;;25.07;;
8397;SDS011;4236;54.504;9.588;2023-04-01T16:26:47;26.47;;;24.80;;
8397;SDS011;4236;54.504;9.588;2023-04-01T16:29:24;26.40;;;24.90;;